sensor_id;sensor_type;location;lat;lon;timestamp;P1;durP1;ratioP1;P2;durP2;ratioP2
30874;SDS011;17581;43.222;27.924;2023-09-19T00:02:22;8.07;;;6.03;;
30874;SDS011;17581;43.222;27.924;2023-09-19T00:04:48;8.93;;;5.70;;
30874;SDS011;17581;43.222;27.924;2023-09-19T00:07:15;11.05;;;5.95;;
30874;SDS011;17581;43.222;27.924;2023-09-19T00:09:41;9.30;;;4.88;;
30874;SDS011;17581;43.222;27.924;2023-09-19T00:12:09;12.93;;;6.28;;
30874;SDS011;17581;43.222;27.924;2023-09-19T00:14:34;7.28;;;5.50;;
30874;SDS011;17581;43.222;27.924;2023-09-19T00:17:03;8.52;;;6.00;;
30874;SDS011;17581;43.222;27.924;2023-09-19T00:21:58;7.82;;;5.40;;
30874;SDS011;17581;43.222;27.924;2023-09-19T00:24:24;9.23;;;5.65;;
30874;SDS011;17581;43.222;27.924;2023-09-19T00:26:49;10.15;;;6.40;;
30874;SDS011;17581;43.222;27.924;2023-09-19T00:29:15;10.35;;;5.90;;
30874;SDS011;17581;43.222;27.924;2023-09-19T00:31:44;10.25;;;5.55;;
30874;SDS011;17581;43.222;27.924;2023-09-19T00:34:10;10.50;;;5.97;;
30874;SDS011;17581;43.222;27.924;2023-09-19T00:36:36;7.18;;;5.82;;
30874;SDS011;17581;43.222;27.924;2023-09-19T00:39:04;12.07;;;7.30;;
30874;SDS011;17581;43.222;27.924;2023-09-19T00:41:33;7.25;;;5.68;;
30874;SDS011;17581;43.222;27.924;2023-09-19T00:44:00;11.43;;;7.60;;
30874;SDS011;17581;43.222;27.924;2023-09-19T00:46:27;7.97;;;6.82;;
30874;SDS011;17581;43.222;27.924;2023-09-19T00:48:53;8.45;;;5.90;;
30874;SDS011;17581;43.222;27.924;2023-09-19T00:51:19;15.48;;;7.38;;
30874;SDS011;17581;43.222;27.924;2023-09-19T00:53:47;8.70;;;6.72;;
30874;SDS011;17581;43.222;27.924;2023-09-19T00:56:13;10.45;;;6.70;;
30874;SDS011;17581;43.222;27.924;2023-09-19T00:58:43;13.57;;;7.00;;
30874;SDS011;17581;43.222;27.924;2023-09-19T01:01:09;12.05;;;7.45;;
30874;SDS011;17581;43.222;27.924;2023-09-19T01:03:36;10.55;;;6.38;;
30874;SDS011;17581;43.222;27.924;2023-09-19T01:06:02;12.30;;;7.90;;
30874;SDS011;17581;43.222;27.924;2023-09-19T01:08:28;7.88;;;6.25;;
30874;SDS011;17581;43.222;27.924;2023-09-19T01:16:42;9.82;;;6.78;;
30874;SDS011;17581;43.222;27.924;2023-09-19T01:22:03;14.60;;;7.68;;
30874;SDS011;17581;43.222;27.924;2023-09-19T01:30:21;7.97;;;5.90;;
30874;SDS011;17581;43.222;27.924;2023-09-19T01:32:52;7.65;;;5.97;;
30874;SDS011;17581;43.222;27.924;2023-09-19T01:35:19;14.63;;;5.20;;
30874;SDS011;17581;43.222;27.924;2023-09-19T01:37:44;9.82;;;6.07;;
30874;SDS011;17581;43.222;27.924;2023-09-19T01:40:11;6.57;;;5.65;;
30874;SDS011;17581;43.222;27.924;2023-09-19T01:50:59;9.45;;;5.78;;
30874;SDS011;17581;43.222;27.924;2023-09-19T01:53:33;11.23;;;6.07;;
30874;SDS011;17581;43.222;27.924;2023-09-19T01:56:05;9.30;;;5.97;;
30874;SDS011;17581;43.222;27.924;2023-09-19T01:58:39;7.75;;;5.93;;
30874;SDS011;17581;43.222;27.924;2023-09-19T02:01:15;8.23;;;5.95;;
30874;SDS011;17581;43.222;27.924;2023-09-19T02:03:46;6.80;;;6.00;;
30874;SDS011;17581;43.222;27.924;2023-09-19T02:06:16;9.48;;;6.47;;
30874;SDS011;17581;43.222;27.924;2023-09-19T02:08:44;30.73;;;7.82;;
30874;SDS011;17581;43.222;27.924;2023-09-19T02:11:13;8.70;;;6.35;;
30874;SDS011;17581;43.222;27.924;2023-09-19T02:13:38;9.95;;;6.60;;
30874;SDS011;17581;43.222;27.924;2023-09-19T02:16:05;9.15;;;6.30;;
30874;SDS011;17581;43.222;27.924;2023-09-19T02:18:32;20.13;;;8.48;;
30874;SDS011;17581;43.222;27.924;2023-09-19T02:21:00;17.15;;;8.20;;
30874;SDS011;17581;43.222;27.924;2023-09-19T02:23:29;12.77;;;6.53;;
30874;SDS011;17581;43.222;27.924;2023-09-19T02:25:55;18.58;;;7.15;;
30874;SDS011;17581;43.222;27.924;2023-09-19T02:28:25;8.18;;;6.47;;
30874;SDS011;17581;43.222;27.924;2023-09-19T02:30:55;12.05;;;6.07;;
30874;SDS011;17581;43.222;27.924;2023-09-19T02:33:21;10.77;;;6.55;;
30874;SDS011;17581;43.222;27.924;2023-09-19T02:35:46;15.35;;;6.40;;
30874;SDS011;17581;43.222;27.924;2023-09-19T02:38:12;17.23;;;6.20;;
30874;SDS011;17581;43.222;27.924;2023-09-19T02:40:38;13.73;;;7.30;;
30874;SDS011;17581;43.222;27.924;2023-09-19T02:43:04;11.13;;;6.53;;
30874;SDS011;17581;43.222;27.924;2023-09-19T02:45:30;13.02;;;6.88;;
30874;SDS011;17581;43.222;27.924;2023-09-19T02:47:56;36.42;;;7.13;;
30874;SDS011;17581;43.222;27.924;2023-09-19T02:50:22;12.90;;;7.85;;
30874;SDS011;17581;43.222;27.924;2023-09-19T02:52:47;18.02;;;8.50;;
30874;SDS011;17581;43.222;27.924;2023-09-19T02:55:14;16.27;;;9.07;;
30874;SDS011;17581;43.222;27.924;2023-09-19T03:00:36;22.25;;;10.30;;
30874;SDS011;17581;43.222;27.924;2023-09-19T03:03:02;23.35;;;10.57;;
30874;SDS011;17581;43.222;27.924;2023-09-19T03:05:28;15.90;;;9.38;;
30874;SDS011;17581;43.222;27.924;2023-09-19T03:07:56;30.33;;;10.93;;
30874;SDS011;17581;43.222;27.924;2023-09-19T03:10:22;27.13;;;13.82;;
30874;SDS011;17581;43.222;27.924;2023-09-19T03:12:49;21.08;;;11.57;;
30874;SDS011;17581;43.222;27.924;2023-09-19T03:15:15;17.83;;;11.02;;
30874;SDS011;17581;43.222;27.924;2023-09-19T03:17:46;20.10;;;10.70;;
30874;SDS011;17581;43.222;27.924;2023-09-19T03:20:13;32.45;;;11.57;;
30874;SDS011;17581;43.222;27.924;2023-09-19T03:22:39;18.33;;;10.90;;
30874;SDS011;17581;43.222;27.924;2023-09-19T03:25:05;22.60;;;9.82;;
30874;SDS011;17581;43.222;27.924;2023-09-19T03:27:35;20.67;;;10.25;;
30874;SDS011;17581;43.222;27.924;2023-09-19T03:30:01;29.65;;;9.50;;
30874;SDS011;17581;43.222;27.924;2023-09-19T03:32:33;22.90;;;10.77;;
30874;SDS011;17581;43.222;27.924;2023-09-19T03:34:59;23.02;;;10.65;;
30874;SDS011;17581;43.222;27.924;2023-09-19T03:37:25;30.55;;;11.50;;
30874;SDS011;17581;43.222;27.924;2023-09-19T03:39:51;23.33;;;10.38;;
30874;SDS011;17581;43.222;27.924;2023-09-19T03:42:16;22.95;;;10.73;;
30874;SDS011;17581;43.222;27.924;2023-09-19T03:44:42;19.05;;;10.82;;
30874;SDS011;17581;43.222;27.924;2023-09-19T03:47:07;17.10;;;9.45;;
30874;SDS011;17581;43.222;27.924;2023-09-19T03:49:33;19.80;;;8.85;;
30874;SDS011;17581;43.222;27.924;2023-09-19T03:51:59;22.02;;;9.70;;
30874;SDS011;17581;43.222;27.924;2023-09-19T03:54:24;25.13;;;14.38;;
30874;SDS011;17581;43.222;27.924;2023-09-19T03:56:50;41.72;;;13.65;;
30874;SDS011;17581;43.222;27.924;2023-09-19T03:59:15;144.63;;;24.40;;
30874;SDS011;17581;43.222;27.924;2023-09-19T04:01:41;44.33;;;12.63;;
30874;SDS011;17581;43.222;27.924;2023-09-19T04:04:06;44.70;;;14.02;;
30874;SDS011;17581;43.222;27.924;2023-09-19T04:06:35;50.45;;;13.32;;
30874;SDS011;17581;43.222;27.924;2023-09-19T04:09:01;35.15;;;11.35;;
30874;SDS011;17581;43.222;27.924;2023-09-19T04:11:28;31.83;;;10.57;;
30874;SDS011;17581;43.222;27.924;2023-09-19T04:13:54;27.60;;;9.13;;
30874;SDS011;17581;43.222;27.924;2023-09-19T04:16:19;24.70;;;13.40;;
30874;SDS011;17581;43.222;27.924;2023-09-19T04:18:45;19.05;;;7.68;;
30874;SDS011;17581;43.222;27.924;2023-09-19T04:21:10;19.67;;;10.10;;
30874;SDS011;17581;43.222;27.924;2023-09-19T04:23:36;23.92;;;7.90;;
30874;SDS011;17581;43.222;27.924;2023-09-19T04:26:01;16.30;;;8.73;;
30874;SDS011;17581;43.222;27.924;2023-09-19T04:28:29;24.38;;;9.77;;
30874;SDS011;17581;43.222;27.924;2023-09-19T04:30:54;33.90;;;10.52;;
30874;SDS011;17581;43.222;27.924;2023-09-19T04:33:20;61.08;;;12.32;;
30874;SDS011;17581;43.222;27.924;2023-09-19T04:35:48;33.50;;;9.95;;
30874;SDS011;17581;43.222;27.924;2023-09-19T04:38:14;29.13;;;12.32;;
30874;SDS011;17581;43.222;27.924;2023-09-19T04:40:40;15.80;;;9.82;;
30874;SDS011;17581;43.222;27.924;2023-09-19T04:43:05;23.27;;;10.32;;
30874;SDS011;17581;43.222;27.924;2023-09-19T04:45:32;24.23;;;10.07;;
30874;SDS011;17581;43.222;27.924;2023-09-19T04:47:58;35.08;;;13.95;;
30874;SDS011;17581;43.222;27.924;2023-09-19T04:50:23;39.35;;;12.02;;
30874;SDS011;17581;43.222;27.924;2023-09-19T04:52:51;81.72;;;18.08;;
30874;SDS011;17581;43.222;27.924;2023-09-19T04:55:20;67.82;;;13.93;;
30874;SDS011;17581;43.222;27.924;2023-09-19T04:57:49;65.55;;;14.88;;
30874;SDS011;17581;43.222;27.924;2023-09-19T05:00:16;70.55;;;14.63;;
30874;SDS011;17581;43.222;27.924;2023-09-19T05:02:45;33.78;;;10.10;;
30874;SDS011;17581;43.222;27.924;2023-09-19T05:05:11;58.05;;;10.85;;
30874;SDS011;17581;43.222;27.924;2023-09-19T05:07:41;95.47;;;14.85;;
30874;SDS011;17581;43.222;27.924;2023-09-19T05:10:07;53.65;;;12.32;;
30874;SDS011;17581;43.222;27.924;2023-09-19T05:12:36;52.30;;;9.32;;
30874;SDS011;17581;43.222;27.924;2023-09-19T05:15:05;32.95;;;9.32;;
30874;SDS011;17581;43.222;27.924;2023-09-19T05:17:34;20.95;;;7.10;;
30874;SDS011;17581;43.222;27.924;2023-09-19T05:20:01;48.58;;;9.57;;
30874;SDS011;17581;43.222;27.924;2023-09-19T05:22:40;55.03;;;13.30;;
30874;SDS011;17581;43.222;27.924;2023-09-19T05:25:06;41.10;;;10.13;;
30874;SDS011;17581;43.222;27.924;2023-09-19T05:27:32;32.78;;;9.07;;
30874;SDS011;17581;43.222;27.924;2023-09-19T05:29:58;47.15;;;10.93;;
30874;SDS011;17581;43.222;27.924;2023-09-19T05:32:24;38.67;;;10.20;;
30874;SDS011;17581;43.222;27.924;2023-09-19T05:34:50;37.97;;;10.38;;
30874;SDS011;17581;43.222;27.924;2023-09-19T05:37:18;35.90;;;8.77;;
30874;SDS011;17581;43.222;27.924;2023-09-19T05:39:44;52.45;;;12.00;;
30874;SDS011;17581;43.222;27.924;2023-09-19T05:42:09;31.52;;;7.90;;
30874;SDS011;17581;43.222;27.924;2023-09-19T05:44:35;13.40;;;9.30;;
30874;SDS011;17581;43.222;27.924;2023-09-19T05:47:01;43.03;;;12.13;;
30874;SDS011;17581;43.222;27.924;2023-09-19T05:49:28;34.03;;;8.65;;
30874;SDS011;17581;43.222;27.924;2023-09-19T05:51:53;18.55;;;7.78;;
30874;SDS011;17581;43.222;27.924;2023-09-19T05:54:20;17.48;;;7.15;;
30874;SDS011;17581;43.222;27.924;2023-09-19T05:56:45;14.45;;;6.65;;
30874;SDS011;17581;43.222;27.924;2023-09-19T05:59:12;34.47;;;9.10;;
30874;SDS011;17581;43.222;27.924;2023-09-19T06:01:40;39.97;;;7.80;;
30874;SDS011;17581;43.222;27.924;2023-09-19T06:04:07;47.95;;;13.48;;
30874;SDS011;17581;43.222;27.924;2023-09-19T06:06:33;63.97;;;19.65;;
30874;SDS011;17581;43.222;27.924;2023-09-19T06:09:01;48.35;;;15.30;;
30874;SDS011;17581;43.222;27.924;2023-09-19T06:11:27;68.97;;;26.60;;
30874;SDS011;17581;43.222;27.924;2023-09-19T06:13:54;40.03;;;16.48;;
30874;SDS011;17581;43.222;27.924;2023-09-19T06:16:19;58.38;;;18.70;;
30874;SDS011;17581;43.222;27.924;2023-09-19T06:18:45;49.88;;;18.85;;
30874;SDS011;17581;43.222;27.924;2023-09-19T06:21:10;45.38;;;19.45;;
30874;SDS011;17581;43.222;27.924;2023-09-19T06:23:36;45.45;;;20.30;;
30874;SDS011;17581;43.222;27.924;2023-09-19T06:26:01;38.35;;;17.33;;
30874;SDS011;17581;43.222;27.924;2023-09-19T06:28:30;46.78;;;19.40;;
30874;SDS011;17581;43.222;27.924;2023-09-19T06:30:55;55.60;;;20.98;;
30874;SDS011;17581;43.222;27.924;2023-09-19T06:33:22;50.55;;;18.58;;
30874;SDS011;17581;43.222;27.924;2023-09-19T06:35:50;46.75;;;19.15;;
30874;SDS011;17581;43.222;27.924;2023-09-19T06:38:18;50.58;;;18.98;;
30874;SDS011;17581;43.222;27.924;2023-09-19T06:40:44;44.70;;;19.25;;
30874;SDS011;17581;43.222;27.924;2023-09-19T06:43:10;57.92;;;17.77;;
30874;SDS011;17581;43.222;27.924;2023-09-19T06:45:36;50.97;;;18.65;;
30874;SDS011;17581;43.222;27.924;2023-09-19T06:48:01;47.03;;;17.10;;
30874;SDS011;17581;43.222;27.924;2023-09-19T06:50:28;53.08;;;17.70;;
30874;SDS011;17581;43.222;27.924;2023-09-19T06:52:58;51.10;;;17.02;;
30874;SDS011;17581;43.222;27.924;2023-09-19T06:55:24;33.72;;;13.18;;
30874;SDS011;17581;43.222;27.924;2023-09-19T06:57:53;34.85;;;15.30;;
30874;SDS011;17581;43.222;27.924;2023-09-19T07:00:22;39.92;;;16.30;;
30874;SDS011;17581;43.222;27.924;2023-09-19T07:02:55;38.95;;;15.98;;
30874;SDS011;17581;43.222;27.924;2023-09-19T07:05:26;94.90;;;19.42;;
30874;SDS011;17581;43.222;27.924;2023-09-19T07:07:56;32.35;;;15.95;;
30874;SDS011;17581;43.222;27.924;2023-09-19T07:10:24;40.90;;;15.57;;
30874;SDS011;17581;43.222;27.924;2023-09-19T07:12:57;31.48;;;12.98;;
30874;SDS011;17581;43.222;27.924;2023-09-19T07:15:24;25.38;;;13.93;;
30874;SDS011;17581;43.222;27.924;2023-09-19T07:17:52;36.17;;;11.00;;
30874;SDS011;17581;43.222;27.924;2023-09-19T07:20:21;33.17;;;11.45;;
30874;SDS011;17581;43.222;27.924;2023-09-19T07:22:50;22.52;;;10.55;;
30874;SDS011;17581;43.222;27.924;2023-09-19T07:25:16;27.80;;;9.77;;
30874;SDS011;17581;43.222;27.924;2023-09-19T07:27:42;38.63;;;13.02;;
30874;SDS011;17581;43.222;27.924;2023-09-19T07:30:08;46.42;;;11.35;;
30874;SDS011;17581;43.222;27.924;2023-09-19T07:32:34;35.25;;;8.32;;
30874;SDS011;17581;43.222;27.924;2023-09-19T07:35:02;18.15;;;6.03;;
30874;SDS011;17581;43.222;27.924;2023-09-19T07:37:29;25.15;;;9.73;;
30874;SDS011;17581;43.222;27.924;2023-09-19T07:39:56;47.42;;;9.57;;
30874;SDS011;17581;43.222;27.924;2023-09-19T07:42:21;13.98;;;7.35;;
30874;SDS011;17581;43.222;27.924;2023-09-19T07:44:47;58.88;;;12.88;;
30874;SDS011;17581;43.222;27.924;2023-09-19T07:47:15;31.95;;;6.35;;
30874;SDS011;17581;43.222;27.924;2023-09-19T07:49:41;9.15;;;5.43;;
30874;SDS011;17581;43.222;27.924;2023-09-19T07:52:08;9.35;;;5.93;;
30874;SDS011;17581;43.222;27.924;2023-09-19T07:54:34;12.48;;;5.57;;
30874;SDS011;17581;43.222;27.924;2023-09-19T07:57:03;16.95;;;5.75;;
30874;SDS011;17581;43.222;27.924;2023-09-19T07:59:29;14.23;;;5.65;;
30874;SDS011;17581;43.222;27.924;2023-09-19T08:01:55;35.85;;;8.30;;
30874;SDS011;17581;43.222;27.924;2023-09-19T08:04:20;11.02;;;5.25;;
30874;SDS011;17581;43.222;27.924;2023-09-19T08:06:45;22.50;;;6.32;;
30874;SDS011;17581;43.222;27.924;2023-09-19T08:09:11;16.08;;;5.32;;
30874;SDS011;17581;43.222;27.924;2023-09-19T08:11:39;32.35;;;5.47;;
30874;SDS011;17581;43.222;27.924;2023-09-19T08:14:04;15.05;;;5.18;;
30874;SDS011;17581;43.222;27.924;2023-09-19T08:16:32;20.98;;;6.35;;
30874;SDS011;17581;43.222;27.924;2023-09-19T08:18:58;14.15;;;5.65;;
30874;SDS011;17581;43.222;27.924;2023-09-19T08:21:23;25.55;;;5.05;;
30874;SDS011;17581;43.222;27.924;2023-09-19T08:23:49;11.02;;;5.43;;
30874;SDS011;17581;43.222;27.924;2023-09-19T08:26:16;12.02;;;4.05;;
30874;SDS011;17581;43.222;27.924;2023-09-19T08:28:42;10.98;;;5.05;;
30874;SDS011;17581;43.222;27.924;2023-09-19T08:31:07;34.88;;;6.50;;
30874;SDS011;17581;43.222;27.924;2023-09-19T08:33:34;13.38;;;6.13;;
30874;SDS011;17581;43.222;27.924;2023-09-19T08:36:01;23.30;;;5.20;;
30874;SDS011;17581;43.222;27.924;2023-09-19T08:38:30;11.80;;;4.78;;
30874;SDS011;17581;43.222;27.924;2023-09-19T08:40:58;12.63;;;5.60;;
30874;SDS011;17581;43.222;27.924;2023-09-19T08:43:25;16.67;;;8.60;;
30874;SDS011;17581;43.222;27.924;2023-09-19T08:45:53;21.33;;;5.03;;
30874;SDS011;17581;43.222;27.924;2023-09-19T08:48:28;25.42;;;6.72;;
30874;SDS011;17581;43.222;27.924;2023-09-19T08:51:07;18.58;;;4.95;;
30874;SDS011;17581;43.222;27.924;2023-09-19T08:53:43;14.82;;;5.10;;
30874;SDS011;17581;43.222;27.924;2023-09-19T08:56:43;15.00;;;5.32;;
30874;SDS011;17581;43.222;27.924;2023-09-19T08:59:10;15.43;;;5.28;;
30874;SDS011;17581;43.222;27.924;2023-09-19T09:01:36;15.60;;;5.93;;
30874;SDS011;17581;43.222;27.924;2023-09-19T09:04:07;16.60;;;5.95;;
30874;SDS011;17581;43.222;27.924;2023-09-19T09:06:38;16.92;;;5.60;;
30874;SDS011;17581;43.222;27.924;2023-09-19T09:09:08;13.02;;;6.18;;
30874;SDS011;17581;43.222;27.924;2023-09-19T09:11:34;23.13;;;5.53;;
30874;SDS011;17581;43.222;27.924;2023-09-19T09:14:02;8.55;;;5.50;;
30874;SDS011;17581;43.222;27.924;2023-09-19T09:16:27;14.32;;;5.60;;
30874;SDS011;17581;43.222;27.924;2023-09-19T09:18:55;16.60;;;5.80;;
30874;SDS011;17581;43.222;27.924;2023-09-19T09:21:24;15.30;;;4.82;;
30874;SDS011;17581;43.222;27.924;2023-09-19T09:23:50;9.80;;;5.35;;
30874;SDS011;17581;43.222;27.924;2023-09-19T09:26:17;18.85;;;6.22;;
30874;SDS011;17581;43.222;27.924;2023-09-19T09:28:45;21.65;;;6.57;;
30874;SDS011;17581;43.222;27.924;2023-09-19T09:31:24;12.95;;;4.80;;
30874;SDS011;17581;43.222;27.924;2023-09-19T09:33:56;48.03;;;9.02;;
30874;SDS011;17581;43.222;27.924;2023-09-19T09:39:01;109.78;;;15.95;;
30874;SDS011;17581;43.222;27.924;2023-09-19T09:41:40;10.25;;;4.80;;
30874;SDS011;17581;43.222;27.924;2023-09-19T09:44:18;21.58;;;6.43;;
30874;SDS011;17581;43.222;27.924;2023-09-19T09:46:47;14.50;;;4.60;;
30874;SDS011;17581;43.222;27.924;2023-09-19T09:49:26;17.52;;;5.75;;
30874;SDS011;17581;43.222;27.924;2023-09-19T09:54:26;10.73;;;5.35;;
30874;SDS011;17581;43.222;27.924;2023-09-19T09:57:03;11.15;;;4.97;;
30874;SDS011;17581;43.222;27.924;2023-09-19T09:59:49;23.50;;;5.70;;
30874;SDS011;17581;43.222;27.924;2023-09-19T10:04:58;41.80;;;8.15;;
30874;SDS011;17581;43.222;27.924;2023-09-19T10:07:35;159.88;;;22.80;;
30874;SDS011;17581;43.222;27.924;2023-09-19T10:10:05;13.93;;;5.10;;
30874;SDS011;17581;43.222;27.924;2023-09-19T10:12:45;17.33;;;5.78;;
30874;SDS011;17581;43.222;27.924;2023-09-19T10:15:13;15.10;;;5.32;;
30874;SDS011;17581;43.222;27.924;2023-09-19T10:17:42;22.75;;;8.10;;
30874;SDS011;17581;43.222;27.924;2023-09-19T10:20:17;11.10;;;5.28;;
30874;SDS011;17581;43.222;27.924;2023-09-19T10:23:00;14.25;;;5.40;;
30874;SDS011;17581;43.222;27.924;2023-09-19T10:25:34;7.68;;;4.70;;
30874;SDS011;17581;43.222;27.924;2023-09-19T10:28:02;10.63;;;3.83;;
30874;SDS011;17581;43.222;27.924;2023-09-19T10:30:36;11.18;;;4.95;;
30874;SDS011;17581;43.222;27.924;2023-09-19T10:33:04;28.73;;;7.47;;
30874;SDS011;17581;43.222;27.924;2023-09-19T10:35:32;14.05;;;5.60;;
30874;SDS011;17581;43.222;27.924;2023-09-19T10:38:03;33.15;;;5.78;;
30874;SDS011;17581;43.222;27.924;2023-09-19T10:40:32;15.18;;;4.57;;
30874;SDS011;17581;43.222;27.924;2023-09-19T10:43:04;24.17;;;6.90;;
30874;SDS011;17581;43.222;27.924;2023-09-19T10:45:33;27.77;;;6.88;;
30874;SDS011;17581;43.222;27.924;2023-09-19T10:48:01;23.48;;;6.07;;
30874;SDS011;17581;43.222;27.924;2023-09-19T10:50:32;19.10;;;6.55;;
30874;SDS011;17581;43.222;27.924;2023-09-19T10:53:02;20.25;;;6.70;;
30874;SDS011;17581;43.222;27.924;2023-09-19T10:55:33;8.60;;;5.13;;
30874;SDS011;17581;43.222;27.924;2023-09-19T10:58:00;20.63;;;5.25;;
30874;SDS011;17581;43.222;27.924;2023-09-19T11:00:29;10.75;;;5.57;;
30874;SDS011;17581;43.222;27.924;2023-09-19T11:05:40;19.70;;;5.95;;
30874;SDS011;17581;43.222;27.924;2023-09-19T11:08:07;8.50;;;6.05;;
30874;SDS011;17581;43.222;27.924;2023-09-19T11:10:48;11.77;;;5.68;;
30874;SDS011;17581;43.222;27.924;2023-09-19T11:13:28;10.05;;;5.05;;
30874;SDS011;17581;43.222;27.924;2023-09-19T11:26:44;22.63;;;6.43;;
30874;SDS011;17581;43.222;27.924;2023-09-19T11:29:28;29.50;;;6.35;;
30874;SDS011;17581;43.222;27.924;2023-09-19T11:31:56;11.05;;;5.25;;
30874;SDS011;17581;43.222;27.924;2023-09-19T11:39:39;15.43;;;5.97;;
30874;SDS011;17581;43.222;27.924;2023-09-19T11:48:15;14.73;;;6.55;;
30874;SDS011;17581;43.222;27.924;2023-09-19T11:50:43;19.48;;;5.22;;
30874;SDS011;17581;43.222;27.924;2023-09-19T11:53:11;20.48;;;6.00;;
30874;SDS011;17581;43.222;27.924;2023-09-19T11:55:40;16.02;;;5.78;;
30874;SDS011;17581;43.222;27.924;2023-09-19T11:58:08;14.17;;;6.30;;
30874;SDS011;17581;43.222;27.924;2023-09-19T12:00:35;14.65;;;5.20;;
30874;SDS011;17581;43.222;27.924;2023-09-19T12:03:07;21.02;;;6.00;;
30874;SDS011;17581;43.222;27.924;2023-09-19T12:05:35;29.80;;;7.53;;
30874;SDS011;17581;43.222;27.924;2023-09-19T12:08:02;14.02;;;5.07;;
30874;SDS011;17581;43.222;27.924;2023-09-19T12:10:32;10.88;;;4.78;;
30874;SDS011;17581;43.222;27.924;2023-09-19T12:12:58;29.13;;;6.10;;
30874;SDS011;17581;43.222;27.924;2023-09-19T12:15:27;20.30;;;5.30;;
30874;SDS011;17581;43.222;27.924;2023-09-19T12:17:59;25.80;;;7.90;;
30874;SDS011;17581;43.222;27.924;2023-09-19T12:20:25;15.73;;;5.82;;
30874;SDS011;17581;43.222;27.924;2023-09-19T12:23:15;14.02;;;5.32;;
30874;SDS011;17581;43.222;27.924;2023-09-19T12:25:43;10.30;;;5.20;;
30874;SDS011;17581;43.222;27.924;2023-09-19T12:28:12;46.07;;;7.50;;
30874;SDS011;17581;43.222;27.924;2023-09-19T12:30:38;28.70;;;7.03;;
30874;SDS011;17581;43.222;27.924;2023-09-19T12:33:04;26.48;;;6.82;;
30874;SDS011;17581;43.222;27.924;2023-09-19T12:35:30;9.20;;;4.43;;
30874;SDS011;17581;43.222;27.924;2023-09-19T12:37:59;14.48;;;5.50;;
30874;SDS011;17581;43.222;27.924;2023-09-19T12:40:26;31.95;;;7.70;;
30874;SDS011;17581;43.222;27.924;2023-09-19T12:42:54;33.08;;;8.75;;
30874;SDS011;17581;43.222;27.924;2023-09-19T12:45:20;14.93;;;5.20;;
30874;SDS011;17581;43.222;27.924;2023-09-19T12:51:03;20.58;;;6.53;;
30874;SDS011;17581;43.222;27.924;2023-09-19T12:53:41;11.15;;;6.32;;
30874;SDS011;17581;43.222;27.924;2023-09-19T12:56:09;23.00;;;6.53;;
30874;SDS011;17581;43.222;27.924;2023-09-19T12:58:53;14.77;;;6.32;;
30874;SDS011;17581;43.222;27.924;2023-09-19T13:01:20;15.18;;;6.50;;
30874;SDS011;17581;43.222;27.924;2023-09-19T13:04:12;14.50;;;6.05;;
30874;SDS011;17581;43.222;27.924;2023-09-19T13:06:40;15.20;;;6.70;;
30874;SDS011;17581;43.222;27.924;2023-09-19T13:09:08;22.30;;;7.82;;
30874;SDS011;17581;43.222;27.924;2023-09-19T13:11:38;14.10;;;5.55;;
30874;SDS011;17581;43.222;27.924;2023-09-19T13:14:21;29.17;;;6.75;;
30874;SDS011;17581;43.222;27.924;2023-09-19T13:17:07;32.72;;;6.55;;
30874;SDS011;17581;43.222;27.924;2023-09-19T13:19:44;17.88;;;5.45;;
30874;SDS011;17581;43.222;27.924;2023-09-19T13:22:42;25.65;;;6.68;;
30874;SDS011;17581;43.222;27.924;2023-09-19T13:25:12;17.13;;;4.95;;
30874;SDS011;17581;43.222;27.924;2023-09-19T13:27:49;15.30;;;5.13;;
30874;SDS011;17581;43.222;27.924;2023-09-19T13:30:19;39.05;;;7.40;;
30874;SDS011;17581;43.222;27.924;2023-09-19T13:32:46;9.60;;;5.80;;
30874;SDS011;17581;43.222;27.924;2023-09-19T13:35:13;17.40;;;5.88;;
30874;SDS011;17581;43.222;27.924;2023-09-19T13:37:39;23.83;;;7.05;;
30874;SDS011;17581;43.222;27.924;2023-09-19T13:40:10;13.95;;;5.97;;
30874;SDS011;17581;43.222;27.924;2023-09-19T13:42:36;19.20;;;5.75;;
30874;SDS011;17581;43.222;27.924;2023-09-19T13:45:03;13.25;;;5.05;;
30874;SDS011;17581;43.222;27.924;2023-09-19T13:47:32;18.92;;;5.40;;
30874;SDS011;17581;43.222;27.924;2023-09-19T13:49:58;20.75;;;5.75;;
30874;SDS011;17581;43.222;27.924;2023-09-19T13:52:25;31.70;;;7.00;;
30874;SDS011;17581;43.222;27.924;2023-09-19T13:54:53;16.90;;;5.30;;
30874;SDS011;17581;43.222;27.924;2023-09-19T13:57:21;20.65;;;5.28;;
30874;SDS011;17581;43.222;27.924;2023-09-19T13:59:51;19.85;;;5.72;;
30874;SDS011;17581;43.222;27.924;2023-09-19T14:02:17;16.52;;;5.57;;
30874;SDS011;17581;43.222;27.924;2023-09-19T14:04:47;18.73;;;5.60;;
30874;SDS011;17581;43.222;27.924;2023-09-19T14:07:13;19.83;;;4.97;;
30874;SDS011;17581;43.222;27.924;2023-09-19T14:09:40;18.88;;;6.82;;
30874;SDS011;17581;43.222;27.924;2023-09-19T14:12:05;18.77;;;6.00;;
30874;SDS011;17581;43.222;27.924;2023-09-19T14:14:31;13.45;;;5.53;;
30874;SDS011;17581;43.222;27.924;2023-09-19T14:16:57;17.58;;;5.13;;
30874;SDS011;17581;43.222;27.924;2023-09-19T14:19:25;23.08;;;5.70;;
30874;SDS011;17581;43.222;27.924;2023-09-19T14:21:52;13.98;;;5.60;;
30874;SDS011;17581;43.222;27.924;2023-09-19T14:24:20;13.48;;;5.10;;
30874;SDS011;17581;43.222;27.924;2023-09-19T14:26:46;42.17;;;9.38;;
30874;SDS011;17581;43.222;27.924;2023-09-19T14:29:12;28.70;;;12.70;;
30874;SDS011;17581;43.222;27.924;2023-09-19T14:31:38;27.27;;;6.93;;
30874;SDS011;17581;43.222;27.924;2023-09-19T14:34:05;16.23;;;5.10;;
30874;SDS011;17581;43.222;27.924;2023-09-19T14:36:31;26.42;;;7.13;;
30874;SDS011;17581;43.222;27.924;2023-09-19T14:38:57;29.65;;;6.93;;
30874;SDS011;17581;43.222;27.924;2023-09-19T14:41:23;56.40;;;8.57;;
30874;SDS011;17581;43.222;27.924;2023-09-19T14:43:53;23.30;;;7.15;;
30874;SDS011;17581;43.222;27.924;2023-09-19T14:46:20;30.35;;;8.18;;
30874;SDS011;17581;43.222;27.924;2023-09-19T14:48:46;18.80;;;5.78;;
30874;SDS011;17581;43.222;27.924;2023-09-19T14:51:14;24.60;;;7.57;;
30874;SDS011;17581;43.222;27.924;2023-09-19T14:53:40;28.40;;;6.63;;
30874;SDS011;17581;43.222;27.924;2023-09-19T14:56:09;12.90;;;5.65;;
30874;SDS011;17581;43.222;27.924;2023-09-19T14:58:35;36.00;;;6.07;;
30874;SDS011;17581;43.222;27.924;2023-09-19T15:01:04;16.95;;;5.30;;
30874;SDS011;17581;43.222;27.924;2023-09-19T15:03:31;23.88;;;8.50;;
30874;SDS011;17581;43.222;27.924;2023-09-19T15:05:58;13.75;;;6.32;;
30874;SDS011;17581;43.222;27.924;2023-09-19T15:08:25;40.22;;;9.60;;
30874;SDS011;17581;43.222;27.924;2023-09-19T15:10:50;18.48;;;6.82;;
30874;SDS011;17581;43.222;27.924;2023-09-19T15:13:18;21.52;;;6.10;;
30874;SDS011;17581;43.222;27.924;2023-09-19T15:15:43;28.80;;;6.82;;
30874;SDS011;17581;43.222;27.924;2023-09-19T15:18:12;23.65;;;6.82;;
30874;SDS011;17581;43.222;27.924;2023-09-19T15:20:42;41.45;;;7.22;;
30874;SDS011;17581;43.222;27.924;2023-09-19T15:23:10;40.42;;;9.82;;
30874;SDS011;17581;43.222;27.924;2023-09-19T15:25:37;23.90;;;6.70;;
30874;SDS011;17581;43.222;27.924;2023-09-19T15:28:02;12.75;;;5.88;;
30874;SDS011;17581;43.222;27.924;2023-09-19T15:30:36;24.85;;;6.28;;